Dobrodošli na spletni strani vremenske postaje Senovo. Vse informacije so informativnega značaja, saj vremenska postaja ni del državne mreže meteoroloških postaj. AKTUALNIH OBVESTIL NI.


Posebna pozornost v zvezi z vremenskimi dogajanji ni potrebna.    Posebna pozornost v zvezi z vremenskimi dogajanji ni potrebna.

Pogled proti Armezu več informacij Pogled proti Armezu


Lisca več informacij Lisca


Radar strel več informacij blitzortung!


Radar padavin več informacij rain snow radar


Obiščite še:

Template documentation
and downloads

And another site



METAR v bližini

   
LJLJ - Ljubljana
Posodobljeno: 21-01-2018 19:00
nekaj oblakov  
nekaj oblakov  
   Veter: Zahod 5.6 km/h
Veter: Zahod 5.6 km/h
Temperatura: 3°C
Občutek mraza: 2°C
Točka rosišča: -4°C
Vlažnost: 60%
Zračni tlak: 1012 hPa
Oblaki: nekaj oblakov
Vidljivost: More than 10 km
Podrobnosti o oblakih: nekaj oblakov 1981.2 m
LJLJ 211800Z 27003KT 9999 FEW065 03/M04 Q1012 WS ALL RWY NOSIG
LJCE - Cerklje ob Krki
Posodobljeno: 21-01-2018 19:00
jasno  
jasno  
   Veter: VJV 5.6 km/h
Veter: VJV 5.6 km/h
Temperatura: 1°C
Občutek mraza: -1°C
Točka rosišča: -2°C
Vlažnost: 81%
Zračni tlak: 1012 hPa
Vidljivost: More than 10 km
Podrobnosti o oblakih: jasno
LJCE 211800Z 12003KT 070V200 CAVOK 01/M02 Q1012 RMK BLU
LJMB - Maribor
Posodobljeno: 21-01-2018 19:00
nekaj oblakov  
nekaj oblakov  
   Veter: VSV 13 km/h
Veter: VSV 13 km/h
Temperatura: 1°C
Občutek mraza: -3°C
Točka rosišča: -2°C
Vlažnost: 81%
Zračni tlak: 1012 hPa
Oblaki: nekaj oblakov
Vidljivost: More than 10 km
Podrobnosti o oblakih: nekaj oblakov 1036.3 m
LJMB 211800Z 06007KT 9999 FEW034 01/M02 Q1012
LJPZ - Portorož
Posodobljeno: 21-01-2018 19:00
nekaj oblakov  
nekaj oblakov  
   Veter: VJV 11.1 km/h
Veter: VJV 11.1 km/h
Temperatura: 4°C
Občutek mraza: 1°C
Točka rosišča: 2°C
Vlažnost: 87%
Zračni tlak: 1012 hPa
Oblaki: nekaj oblakov
Vidljivost: More than 10 km
Podrobnosti o oblakih: nekaj oblakov 1524 m
LJPZ 211800Z 12006KT 9999 FEW050 04/02 Q1012
LDRI - Rijeka, Airport, Croatia
Posodobljeno: 21-01-2018 19:00
nekaj oblakov  
nekaj oblakov  
   Veter: SSV 14.8 km/h
Veter: SSV 14.8 km/h
Temperatura: 9°C
Občutek mraza: 7°C
Točka rosišča: -6°C
Vlažnost: 34%
Zračni tlak: 1011 hPa
Oblaki: nekaj oblakov
Vidljivost: More than 10 km
Podrobnosti o oblakih: nekaj oblakov 1310.6 m
LDRI 211800Z 03008KT 340V060 9999 FEW043 09/M06 Q1011
LOWK - Klagenfurt, Airport, Avstia
Posodobljeno: 21-01-2018 18:50
nekaj oblakov  
nekaj oblakov  
   Veter: Zahod 9.3 km/h
Veter: Zahod 9.3 km/h
Temperatura: 4°C
Občutek mraza: 2°C
Točka rosišča: -10°C
Vlažnost: 36%
Zračni tlak: 1013 hPa
Oblaki: nekaj oblakov
Vidljivost: More than 10 km
Podrobnosti o oblakih: nekaj oblakov 1828.8 m
LOWK 211750Z 28005KT 240V330 9999 FEW060 04/M10 Q1013 R10L/19//95 NOSIG

Script developed by  Saratoga-weather.org Adapted for the template by  Weerstation Leuven

Vremenski podatki so objavljeni na:

WeatherCloud

Weather Underground

AWEKAS

HAMweather, WeatherForYou, PWS Weather

MapView

Geostik

Slovenia weather network

Oprema, ki se uporablja:

Vremenski program
Cumulus

Cumulus